createdAt,value
2023-01-18T00:01:01.181Z,94.00
2023-01-18T00:03:28.498Z,93.90
2023-01-18T00:05:55.326Z,93.90
2023-01-18T00:08:22.078Z,93.90
2023-01-18T00:10:48.823Z,93.90
2023-01-18T00:13:15.507Z,93.90
2023-01-18T00:15:42.256Z,93.90
2023-01-18T00:18:08.994Z,93.90
2023-01-18T00:20:35.723Z,93.90
2023-01-18T00:23:02.734Z,93.90
2023-01-18T00:25:30.133Z,93.80
2023-01-18T00:27:57.310Z,93.80
2023-01-18T00:30:29.322Z,93.90
2023-01-18T00:32:58.811Z,93.90
2023-01-18T00:35:26.257Z,93.80
2023-01-18T00:37:53.947Z,93.90
2023-01-18T00:40:22.616Z,93.90
2023-01-18T00:43:07.982Z,93.90
2023-01-18T00:45:35.052Z,93.90
2023-01-18T00:48:02.779Z,93.90
2023-01-18T00:50:29.825Z,94.00
2023-01-18T00:53:00.186Z,94.00
2023-01-18T00:55:27.455Z,94.00
2023-01-18T00:57:54.239Z,94.00
2023-01-18T01:00:26.912Z,94.00
2023-01-18T01:02:54.436Z,94.00
2023-01-18T01:05:42.414Z,94.00
2023-01-18T01:08:16.897Z,94.00
2023-01-18T01:10:49.021Z,94.00
2023-01-18T01:13:37.425Z,94.10
2023-01-18T01:16:28.407Z,94.10
2023-01-18T01:19:14.826Z,94.10
2023-01-18T01:22:00.244Z,94.10
2023-01-18T01:24:45.953Z,94.10
2023-01-18T01:27:13.749Z,94.10
2023-01-18T01:29:40.587Z,94.10
2023-01-18T01:32:07.420Z,94.10
2023-01-18T01:34:34.237Z,94.10
2023-01-18T01:37:00.959Z,94.10
2023-01-18T01:39:27.857Z,94.10
2023-01-18T01:41:54.669Z,94.10
2023-01-18T01:44:21.301Z,94.10
2023-01-18T01:46:58.930Z,94.10
2023-01-18T01:49:32.138Z,94.10
2023-01-18T01:52:01.469Z,94.10
2023-01-18T01:54:41.372Z,94.10
2023-01-18T01:57:14.081Z,94.10
2023-01-18T01:59:47.136Z,94.10
2023-01-18T02:02:13.954Z,94.10
2023-01-18T02:04:44.182Z,94.10
2023-01-18T02:07:13.835Z,94.10
2023-01-18T02:09:41.264Z,94.10
2023-01-18T02:12:08.077Z,94.10
2023-01-18T02:14:35.959Z,94.00
2023-01-18T02:17:02.581Z,94.00
2023-01-18T02:19:59.617Z,94.00
2023-01-18T02:22:44.947Z,94.00
2023-01-18T02:25:27.031Z,94.00
2023-01-18T02:28:13.937Z,94.00
2023-01-18T02:30:51.949Z,94.00
2023-01-18T02:33:34.477Z,94.00
2023-01-18T02:36:03.198Z,94.00
2023-01-18T02:38:40.810Z,93.90
2023-01-18T02:41:56.504Z,94.00
2023-01-18T02:44:52.996Z,94.00
2023-01-18T02:47:21.149Z,94.00
2023-01-18T02:49:47.888Z,94.00
2023-01-18T02:52:39.230Z,94.00
2023-01-18T02:55:12.707Z,94.00
2023-01-18T02:57:40.398Z,94.00
2023-01-18T03:00:11.328Z,94.00
2023-01-18T03:02:40.391Z,94.00
2023-01-18T03:05:10.574Z,94.00
2023-01-18T03:07:54.889Z,94.00
2023-01-18T03:10:24.476Z,94.00
2023-01-18T03:13:21.229Z,94.00
2023-01-18T03:16:05.594Z,94.00
2023-01-18T03:19:01.415Z,94.00
2023-01-18T03:21:43.248Z,94.00
2023-01-18T03:24:11.784Z,94.00
2023-01-18T03:26:43.301Z,94.00
2023-01-18T03:29:31.337Z,94.00
2023-01-18T03:32:30.535Z,94.00
2023-01-18T03:35:10.666Z,94.00
2023-01-18T03:37:41.287Z,94.10
2023-01-18T03:40:17.179Z,94.10
2023-01-18T03:42:59.649Z,94.10
2023-01-18T03:45:41.983Z,94.10
2023-01-18T03:48:09.928Z,94.00
2023-01-18T03:50:47.313Z,94.00
2023-01-18T03:53:19.353Z,94.00
2023-01-18T03:55:48.978Z,94.10
2023-01-18T03:58:22.048Z,94.00
2023-01-18T04:00:51.456Z,94.00
2023-01-18T04:03:18.221Z,94.00
2023-01-18T04:05:45.030Z,94.10
2023-01-18T04:08:11.727Z,94.10
2023-01-18T04:10:38.391Z,94.10
2023-01-18T04:13:05.041Z,94.10
2023-01-18T04:15:31.808Z,94.10
2023-01-18T04:17:58.494Z,94.10
2023-01-18T04:20:25.240Z,94.10
2023-01-18T04:22:53.232Z,94.10
2023-01-18T04:25:20.770Z,94.10
2023-01-18T04:27:47.475Z,94.10
2023-01-18T04:30:14.269Z,94.10
2023-01-18T04:32:42.779Z,94.10
2023-01-18T04:35:10.221Z,94.10
2023-01-18T04:37:38.353Z,94.10
2023-01-18T04:40:06.567Z,94.10
2023-01-18T04:42:33.312Z,94.10
2023-01-18T04:45:00.500Z,94.10
2023-01-18T04:47:30.691Z,94.10
2023-01-18T04:49:57.960Z,94.10
2023-01-18T04:52:26.591Z,94.10
2023-01-18T04:54:53.319Z,94.10
2023-01-18T04:57:20.087Z,94.10
2023-01-18T04:59:46.810Z,94.10
2023-01-18T05:02:15.265Z,94.10
2023-01-18T05:04:43.730Z,94.10
2023-01-18T05:07:11.326Z,94.10
2023-01-18T05:09:38.081Z,94.10
2023-01-18T05:12:05.144Z,94.10
2023-01-18T05:14:31.903Z,94.10
2023-01-18T05:16:58.593Z,94.10
2023-01-18T05:19:30.057Z,94.20
2023-01-18T05:21:56.936Z,94.20
2023-01-18T05:24:23.680Z,94.20
2023-01-18T05:26:50.409Z,94.20
2023-01-18T05:29:17.902Z,94.20
2023-01-18T05:31:44.892Z,94.20
2023-01-18T05:34:11.855Z,94.20
2023-01-18T05:36:38.565Z,94.20
2023-01-18T05:39:05.648Z,94.20
2023-01-18T05:41:32.493Z,94.20
2023-01-18T05:43:59.176Z,94.20
2023-01-18T05:46:26.039Z,94.20
2023-01-18T05:48:57.565Z,94.20
2023-01-18T05:51:24.816Z,94.20
2023-01-18T05:53:51.593Z,94.20
2023-01-18T05:56:18.353Z,94.20
2023-01-18T05:58:45.053Z,94.20
2023-01-18T06:01:11.975Z,94.20
2023-01-18T06:03:38.798Z,94.20
2023-01-18T06:06:05.801Z,94.20
2023-01-18T06:08:33.651Z,94.20
2023-01-18T06:11:00.970Z,94.20
2023-01-18T06:13:30.151Z,94.20
2023-01-18T06:15:58.297Z,94.20
2023-01-18T06:18:33.271Z,94.20
2023-01-18T06:21:02.482Z,94.20
2023-01-18T06:23:30.404Z,94.20
2023-01-18T06:25:57.561Z,94.20
2023-01-18T06:28:24.508Z,94.20
2023-01-18T06:30:55.337Z,94.20
2023-01-18T06:33:23.362Z,94.20
2023-01-18T06:35:50.168Z,94.20
2023-01-18T06:38:16.991Z,94.20
2023-01-18T06:40:43.714Z,94.20
2023-01-18T06:43:13.839Z,94.20
2023-01-18T06:45:41.377Z,94.20
2023-01-18T06:48:08.334Z,94.20
2023-01-18T06:50:35.110Z,94.20
2023-01-18T06:53:01.982Z,94.20
2023-01-18T06:55:28.788Z,94.20
2023-01-18T06:57:57.046Z,94.20
2023-01-18T07:00:24.097Z,94.20
2023-01-18T07:02:53.744Z,94.30
2023-01-18T07:05:20.475Z,94.30
2023-01-18T07:07:47.265Z,94.30
2023-01-18T07:10:16.362Z,94.30
2023-01-18T07:12:47.390Z,94.30
2023-01-18T07:15:21.636Z,94.30
2023-01-18T07:17:50.315Z,94.30
2023-01-18T07:20:17.528Z,94.30
2023-01-18T07:22:44.307Z,94.30
2023-01-18T07:25:13.519Z,94.30
2023-01-18T07:27:43.537Z,94.30
2023-01-18T07:30:14.664Z,94.30
2023-01-18T07:32:49.361Z,94.20
2023-01-18T07:35:17.346Z,94.30
2023-01-18T07:37:49.134Z,94.30
2023-01-18T07:40:16.184Z,94.30
2023-01-18T07:42:42.893Z,94.20
2023-01-18T07:45:10.609Z,94.30
2023-01-18T07:47:39.588Z,94.30
2023-01-18T07:50:06.680Z,94.30
2023-01-18T07:52:33.503Z,94.30
2023-01-18T07:55:00.183Z,94.30
2023-01-18T07:57:27.022Z,94.30
2023-01-18T07:59:53.767Z,94.30
2023-01-18T08:02:20.720Z,94.30
2023-01-18T08:04:50.541Z,94.30
2023-01-18T08:07:17.908Z,94.30
2023-01-18T08:09:44.883Z,94.30
2023-01-18T08:12:17.569Z,94.30
2023-01-18T08:14:45.972Z,94.30
2023-01-18T08:17:12.815Z,94.30
2023-01-18T08:19:39.604Z,94.30
2023-01-18T08:22:07.987Z,94.20
2023-01-18T08:24:34.830Z,94.20
2023-01-18T08:27:01.491Z,94.20
2023-01-18T08:29:28.242Z,94.20
2023-01-18T08:31:56.112Z,94.20
2023-01-18T08:34:22.958Z,94.10
2023-01-18T08:36:51.027Z,94.10
2023-01-18T08:39:17.848Z,94.10
2023-01-18T08:41:46.525Z,94.10
2023-01-18T08:44:13.651Z,94.10
2023-01-18T08:46:40.504Z,94.00
2023-01-18T08:49:07.307Z,94.00
2023-01-18T08:51:34.127Z,94.00
2023-01-18T08:54:01.114Z,94.00
2023-01-18T08:56:29.303Z,94.00
2023-01-18T08:58:56.344Z,93.90
2023-01-18T09:01:23.932Z,93.90
2023-01-18T09:03:54.295Z,93.90
2023-01-18T09:06:21.593Z,93.80
2023-01-18T09:08:49.223Z,93.80
2023-01-18T09:11:17.394Z,93.70
2023-01-18T09:13:59.416Z,93.70
2023-01-18T09:16:27.250Z,93.70
2023-01-18T09:18:55.895Z,93.60
2023-01-18T09:21:22.663Z,93.60
2023-01-18T09:23:49.483Z,93.60
2023-01-18T09:26:18.239Z,93.60
2023-01-18T09:28:47.416Z,93.50
2023-01-18T09:31:14.449Z,93.50
2023-01-18T09:33:51.169Z,93.60
2023-01-18T09:36:21.583Z,93.60
2023-01-18T09:38:48.420Z,93.50
2023-01-18T09:41:37.783Z,93.40
2023-01-18T09:44:39.298Z,93.00
2023-01-18T09:47:25.487Z,92.90
2023-01-18T09:50:02.323Z,92.40
2023-01-18T09:52:31.833Z,92.50
2023-01-18T09:55:27.691Z,92.30
2023-01-18T09:58:15.339Z,91.70
2023-01-18T10:00:46.220Z,92.50
2023-01-18T10:03:32.936Z,92.60
2023-01-18T10:06:08.924Z,92.70
2023-01-18T10:08:57.881Z,93.00
2023-01-18T10:11:44.811Z,92.80
2023-01-18T10:14:22.594Z,91.90
2023-01-18T10:16:56.915Z,91.80
2023-01-18T10:19:29.770Z,91.70
2023-01-18T10:22:06.403Z,91.80
2023-01-18T10:25:00.572Z,91.20
2023-01-18T10:27:56.256Z,90.40
2023-01-18T10:30:50.697Z,91.10
2023-01-18T10:33:25.087Z,91.50
2023-01-18T10:35:56.727Z,91.20
2023-01-18T10:38:26.249Z,91.00
2023-01-18T10:41:00.967Z,90.90
2023-01-18T10:43:30.060Z,91.10
2023-01-18T10:45:57.317Z,90.40
2023-01-18T10:48:28.830Z,87.90
2023-01-18T10:51:01.606Z,88.00
2023-01-18T10:53:31.636Z,88.30
2023-01-18T10:56:06.759Z,89.90
2023-01-18T10:58:51.073Z,90.20
2023-01-18T11:01:31.812Z,85.00
2023-01-18T11:04:05.924Z,86.50
2023-01-18T11:06:53.585Z,86.70
2023-01-18T11:09:40.986Z,84.10
2023-01-18T11:12:41.128Z,86.10
2023-01-18T11:15:13.998Z,89.90
2023-01-18T11:17:43.350Z,91.00
2023-01-18T11:20:21.678Z,91.90
2023-01-18T11:22:58.997Z,92.00
2023-01-18T11:25:47.273Z,91.80
2023-01-18T11:28:32.034Z,91.80
2023-01-18T11:31:12.916Z,92.30
2023-01-18T11:33:52.563Z,92.10
2023-01-18T11:36:21.633Z,91.80
2023-01-18T11:38:48.356Z,92.00
2023-01-18T11:41:23.362Z,91.10
2023-01-18T11:44:32.408Z,90.80
2023-01-18T11:47:03.819Z,91.20
2023-01-18T11:49:37.802Z,90.60
2023-01-18T11:52:20.868Z,90.30
2023-01-18T11:54:54.119Z,90.70
2023-01-18T11:57:20.945Z,91.20
2023-01-18T11:59:51.396Z,91.50
2023-01-18T12:02:56.128Z,91.50
2023-01-18T12:05:45.879Z,92.00
2023-01-18T12:08:22.425Z,91.60
2023-01-18T12:10:51.938Z,92.10
2023-01-18T12:13:47.151Z,92.00
2023-01-18T12:16:22.586Z,91.70
2023-01-18T12:19:04.480Z,91.60
2023-01-18T12:21:34.202Z,91.20
2023-01-18T12:24:20.626Z,91.00
2023-01-18T12:26:58.081Z,91.40
2023-01-18T12:29:46.725Z,90.20
2023-01-18T12:32:32.120Z,84.30
2023-01-18T12:35:24.042Z,77.20
2023-01-18T12:38:17.661Z,72.10
2023-01-18T12:41:04.895Z,62.70
2023-01-18T12:44:01.488Z,55.70
2023-01-18T12:46:52.164Z,54.70
2023-01-18T12:49:21.816Z,52.40
2023-01-18T12:51:52.751Z,55.90
2023-01-18T12:54:34.380Z,57.90
2023-01-18T12:57:02.117Z,62.30
2023-01-18T12:59:45.028Z,65.20
2023-01-18T13:02:33.480Z,68.50
2023-01-18T13:05:34.879Z,69.20
2023-01-18T13:08:09.086Z,65.60
2023-01-18T13:10:37.184Z,65.70
2023-01-18T13:13:05.965Z,63.00
2023-01-18T13:15:45.162Z,63.20
2023-01-18T13:18:18.799Z,66.60
2023-01-18T13:21:13.518Z,68.80
2023-01-18T13:23:42.981Z,67.60
2023-01-18T13:26:24.844Z,72.10
2023-01-18T13:29:10.314Z,75.70
2023-01-18T13:31:37.988Z,74.70
2023-01-18T13:34:08.079Z,74.70
2023-01-18T13:36:45.860Z,76.50
2023-01-18T13:39:23.557Z,81.60
2023-01-18T13:42:02.279Z,82.00
2023-01-18T13:44:40.621Z,79.60
2023-01-18T13:47:42.774Z,76.20
2023-01-18T13:50:28.094Z,80.40
2023-01-18T13:53:12.942Z,85.00
2023-01-18T13:56:00.051Z,85.40
2023-01-18T13:58:32.148Z,85.90
2023-01-18T14:01:03.460Z,86.60
2023-01-18T14:03:34.379Z,88.70
2023-01-18T14:06:09.158Z,89.40
2023-01-18T14:08:38.368Z,90.20
2023-01-18T14:11:11.348Z,86.40
2023-01-18T14:13:50.115Z,81.20
2023-01-18T14:16:21.320Z,82.50
2023-01-18T14:19:09.624Z,85.00
2023-01-18T14:22:08.537Z,84.90
2023-01-18T14:24:47.830Z,85.30
2023-01-18T14:27:19.843Z,88.80
2023-01-18T14:29:49.952Z,89.00
2023-01-18T14:32:21.641Z,89.70
2023-01-18T14:34:59.596Z,90.70
2023-01-18T14:37:32.061Z,91.50
2023-01-18T14:40:15.866Z,91.90
2023-01-18T14:43:05.757Z,92.10
2023-01-18T14:45:38.893Z,91.90
2023-01-18T14:48:10.285Z,91.80
2023-01-18T14:50:41.120Z,91.80
2023-01-18T14:53:14.664Z,91.30
2023-01-18T14:55:41.513Z,90.70
2023-01-18T14:58:17.063Z,90.40
2023-01-18T15:00:53.878Z,90.50
2023-01-18T15:03:29.667Z,90.90
2023-01-18T15:06:02.966Z,91.50
2023-01-18T15:08:34.188Z,91.70
2023-01-18T15:11:05.022Z,91.50
2023-01-18T15:13:32.849Z,91.80
2023-01-18T15:16:02.520Z,91.90
2023-01-18T15:18:30.052Z,91.60
2023-01-18T15:21:02.568Z,90.80
2023-01-18T15:23:33.134Z,90.10
2023-01-18T15:25:59.878Z,87.30
2023-01-18T15:28:33.867Z,85.50
2023-01-18T15:31:12.491Z,83.50
2023-01-18T15:33:39.674Z,83.30
2023-01-18T15:36:07.564Z,86.90
2023-01-18T15:38:34.390Z,87.80
2023-01-18T15:41:11.006Z,89.90
2023-01-18T15:43:42.544Z,88.80
2023-01-18T15:46:12.899Z,88.00
2023-01-18T15:48:51.669Z,89.20
2023-01-18T15:51:22.418Z,89.40
2023-01-18T15:53:56.053Z,88.70
2023-01-18T15:56:27.053Z,88.00
2023-01-18T15:58:57.271Z,89.50
2023-01-18T16:01:28.148Z,89.10
2023-01-18T16:04:00.784Z,89.40
2023-01-18T16:06:29.745Z,90.20
2023-01-18T16:09:13.587Z,90.00
2023-01-18T16:11:51.873Z,90.70
2023-01-18T16:14:20.780Z,91.00
2023-01-18T16:16:48.072Z,90.90
2023-01-18T16:19:23.893Z,91.10
2023-01-18T16:21:59.771Z,91.10
2023-01-18T16:24:53.562Z,90.90
2023-01-18T16:27:23.412Z,90.90
2023-01-18T16:29:54.962Z,91.00
2023-01-18T16:32:24.678Z,91.20
2023-01-18T16:34:53.351Z,91.40
2023-01-18T16:37:21.181Z,91.20
2023-01-18T16:39:48.993Z,91.30
2023-01-18T16:42:18.152Z,91.60
2023-01-18T16:44:46.700Z,91.80
2023-01-18T16:47:16.032Z,91.60
2023-01-18T16:49:44.259Z,91.70
2023-01-18T16:52:12.908Z,91.90
2023-01-18T16:54:42.018Z,91.50
2023-01-18T16:57:19.072Z,91.50
2023-01-18T16:59:45.962Z,91.60
2023-01-18T17:02:12.896Z,91.70
2023-01-18T17:04:39.940Z,91.90
2023-01-18T17:07:07.022Z,91.90
2023-01-18T17:09:40.465Z,91.80
2023-01-18T17:12:14.226Z,91.40
2023-01-18T17:14:41.012Z,91.20
2023-01-18T17:17:09.747Z,91.10
2023-01-18T17:19:37.787Z,91.30
2023-01-18T17:22:05.044Z,91.50
2023-01-18T17:24:31.967Z,91.70
2023-01-18T17:26:58.776Z,91.80
2023-01-18T17:29:25.529Z,91.70
2023-01-18T17:31:53.226Z,91.70
2023-01-18T17:34:28.105Z,91.50
2023-01-18T17:36:58.058Z,91.40
2023-01-18T17:39:31.997Z,91.30
2023-01-18T17:42:14.292Z,91.30
2023-01-18T17:44:43.391Z,91.40
2023-01-18T17:47:10.101Z,90.80
2023-01-18T17:49:36.914Z,90.70
2023-01-18T17:52:03.910Z,90.90
2023-01-18T17:54:30.657Z,90.90
2023-01-18T17:56:57.367Z,90.90
2023-01-18T17:59:24.465Z,90.70
2023-01-18T18:01:51.327Z,90.90
2023-01-18T18:04:18.608Z,90.80
2023-01-18T18:06:53.795Z,91.00
2023-01-18T18:09:21.224Z,91.20
2023-01-18T18:11:48.056Z,91.60
2023-01-18T18:14:15.143Z,91.60
2023-01-18T18:16:43.703Z,91.50
2023-01-18T18:19:14.460Z,91.50
2023-01-18T18:21:45.302Z,91.20
2023-01-18T18:24:12.046Z,91.40
2023-01-18T18:26:38.775Z,91.40
2023-01-18T18:29:05.515Z,91.40
2023-01-18T18:31:32.207Z,91.30
2023-01-18T18:33:59.013Z,91.30
2023-01-18T18:36:27.461Z,91.10
2023-01-18T18:38:54.454Z,91.10
2023-01-18T18:41:21.407Z,91.30
2023-01-18T18:43:48.090Z,91.40
2023-01-18T18:46:14.937Z,91.60
2023-01-18T18:48:41.771Z,91.60
2023-01-18T18:51:08.645Z,91.80
2023-01-18T18:53:39.779Z,92.10
2023-01-18T18:56:09.437Z,92.20
2023-01-18T18:58:36.830Z,91.80
2023-01-18T19:01:05.141Z,91.60
2023-01-18T19:03:32.635Z,91.30
2023-01-18T19:06:00.362Z,91.00
2023-01-18T19:08:27.274Z,90.70
2023-01-18T19:10:56.073Z,90.30
2023-01-18T19:13:22.818Z,89.70
2023-01-18T19:15:50.279Z,88.30
2023-01-18T19:18:17.177Z,87.70
2023-01-18T19:20:43.971Z,88.00
2023-01-18T19:23:11.298Z,87.70
2023-01-18T19:25:38.857Z,87.10
2023-01-18T19:28:05.693Z,86.80
2023-01-18T19:30:33.320Z,87.30
2023-01-18T19:33:00.763Z,88.50
2023-01-18T19:35:27.737Z,88.80
2023-01-18T19:37:55.051Z,87.70
2023-01-18T19:40:21.889Z,86.50
2023-01-18T19:42:54.857Z,87.10
2023-01-18T19:45:27.918Z,86.60
2023-01-18T19:47:56.609Z,85.50
2023-01-18T19:50:23.674Z,85.80
2023-01-18T19:52:50.474Z,86.10
2023-01-18T19:55:17.378Z,87.40
2023-01-18T19:57:44.673Z,88.50
2023-01-18T20:00:12.006Z,89.00
2023-01-18T20:02:39.824Z,90.00
2023-01-18T20:05:07.557Z,90.20
2023-01-18T20:07:34.266Z,90.50
2023-01-18T20:10:01.031Z,90.80
2023-01-18T20:12:31.221Z,91.00
2023-01-18T20:14:58.232Z,90.90
2023-01-18T20:17:25.976Z,91.00
2023-01-18T20:19:54.141Z,91.00
2023-01-18T20:22:22.260Z,90.90
2023-01-18T20:24:49.319Z,90.80
2023-01-18T20:27:17.099Z,90.40
2023-01-18T20:29:44.577Z,90.30
2023-01-18T20:32:17.178Z,90.30
2023-01-18T20:34:46.769Z,90.50
2023-01-18T20:37:14.391Z,90.70
2023-01-18T20:39:41.246Z,90.90
2023-01-18T20:42:08.514Z,91.00
2023-01-18T20:44:35.880Z,90.80
2023-01-18T20:47:02.972Z,90.60
2023-01-18T20:49:37.572Z,90.30
2023-01-18T20:52:05.797Z,90.40
2023-01-18T20:54:34.710Z,90.40
2023-01-18T20:57:02.341Z,90.40
2023-01-18T20:59:29.011Z,90.50
2023-01-18T21:01:55.939Z,90.50
2023-01-18T21:04:22.864Z,90.70
2023-01-18T21:06:49.950Z,90.60
2023-01-18T21:09:17.074Z,90.30
2023-01-18T21:11:44.007Z,90.40
2023-01-18T21:14:11.690Z,90.90
2023-01-18T21:16:38.509Z,91.00
2023-01-18T21:19:05.218Z,90.90
2023-01-18T21:21:32.097Z,91.10
2023-01-18T21:24:00.054Z,90.50
2023-01-18T21:26:27.344Z,89.60
2023-01-18T21:28:54.845Z,88.40
2023-01-18T21:31:22.059Z,87.30
2023-01-18T21:33:49.478Z,86.50
2023-01-18T21:36:18.031Z,84.60
2023-01-18T21:38:44.767Z,83.30
2023-01-18T21:41:30.201Z,82.00
2023-01-18T21:44:15.727Z,80.20
2023-01-18T21:46:46.705Z,78.90
2023-01-18T21:49:51.950Z,77.40
2023-01-18T21:52:38.901Z,76.40
2023-01-18T21:55:05.913Z,76.60
2023-01-18T21:57:32.637Z,75.10
2023-01-18T21:59:59.400Z,71.80
2023-01-18T22:02:26.335Z,69.80
2023-01-18T22:05:05.047Z,70.70
2023-01-18T22:07:34.494Z,71.40
2023-01-18T22:10:05.629Z,73.20
2023-01-18T22:12:35.222Z,73.20
2023-01-18T22:15:03.124Z,74.70
2023-01-18T22:17:29.933Z,73.40
2023-01-18T22:19:56.665Z,70.40
2023-01-18T22:22:23.492Z,69.60
2023-01-18T22:24:50.167Z,67.70
2023-01-18T22:27:16.808Z,66.70
2023-01-18T22:29:43.544Z,64.50
2023-01-18T22:32:10.286Z,64.30
2023-01-18T22:34:37.003Z,65.50
2023-01-18T22:37:03.912Z,66.40
2023-01-18T22:39:30.700Z,68.10
2023-01-18T22:41:57.583Z,68.70
2023-01-18T22:44:24.416Z,68.40
2023-01-18T22:46:51.213Z,66.80
2023-01-18T22:49:18.104Z,65.10
2023-01-18T22:51:44.876Z,65.90
2023-01-18T22:54:11.654Z,65.30
2023-01-18T22:56:38.370Z,65.60
2023-01-18T22:59:05.076Z,64.20
2023-01-18T23:01:32.750Z,63.30
2023-01-18T23:04:01.974Z,63.00
2023-01-18T23:06:42.172Z,63.10
2023-01-18T23:09:10.208Z,63.70
2023-01-18T23:11:37.319Z,64.30
2023-01-18T23:14:23.623Z,63.90
2023-01-18T23:17:09.375Z,64.20
2023-01-18T23:19:36.389Z,63.50
2023-01-18T23:22:07.080Z,65.80
2023-01-18T23:24:35.785Z,67.90
2023-01-18T23:27:03.443Z,69.70
2023-01-18T23:29:30.204Z,71.50
2023-01-18T23:31:57.514Z,72.10
2023-01-18T23:34:25.151Z,71.40
2023-01-18T23:36:52.145Z,73.30
2023-01-18T23:39:37.551Z,73.70
2023-01-18T23:42:23.229Z,72.70
2023-01-18T23:45:08.817Z,71.00
2023-01-18T23:47:54.892Z,71.90
2023-01-18T23:50:40.651Z,73.10
2023-01-18T23:53:30.621Z,74.50
2023-01-18T23:55:57.910Z,75.80
2023-01-18T23:58:25.256Z,77.90
